sensor_id;sensor_type;location;lat;lon;timestamp;P1;durP1;ratioP1;P2;durP2;ratioP2
813;SDS011;389;48.710;9.392;2023-02-28T00:00:33;5.50;;;3.07;;
813;SDS011;389;48.710;9.392;2023-02-28T00:03:00;3.47;;;3.10;;
813;SDS011;389;48.710;9.392;2023-02-28T00:05:27;5.90;;;2.97;;
813;SDS011;389;48.710;9.392;2023-02-28T00:07:53;4.90;;;3.23;;
813;SDS011;389;48.710;9.392;2023-02-28T00:10:20;6.90;;;3.30;;
813;SDS011;389;48.710;9.392;2023-02-28T00:12:56;3.87;;;2.53;;
813;SDS011;389;48.710;9.392;2023-02-28T00:15:25;4.80;;;3.10;;
813;SDS011;389;48.710;9.392;2023-02-28T00:17:51;3.17;;;2.73;;
813;SDS011;389;48.710;9.392;2023-02-28T00:20:16;2.40;;;2.20;;
813;SDS011;389;48.710;9.392;2023-02-28T00:22:43;3.40;;;2.53;;
813;SDS011;389;48.710;9.392;2023-02-28T00:25:11;3.70;;;2.80;;
813;SDS011;389;48.710;9.392;2023-02-28T00:27:40;3.83;;;2.60;;
813;SDS011;389;48.710;9.392;2023-02-28T00:30:06;3.83;;;2.77;;
813;SDS011;389;48.710;9.392;2023-02-28T00:32:33;3.90;;;2.90;;
813;SDS011;389;48.710;9.392;2023-02-28T00:35:00;4.60;;;2.93;;
813;SDS011;389;48.710;9.392;2023-02-28T00:37:26;3.73;;;3.17;;
813;SDS011;389;48.710;9.392;2023-02-28T00:39:52;4.00;;;2.87;;
813;SDS011;389;48.710;9.392;2023-02-28T00:42:18;4.40;;;2.90;;
813;SDS011;389;48.710;9.392;2023-02-28T00:44:43;3.70;;;3.07;;
813;SDS011;389;48.710;9.392;2023-02-28T00:47:09;4.83;;;2.83;;
813;SDS011;389;48.710;9.392;2023-02-28T00:49:35;5.13;;;3.03;;
813;SDS011;389;48.710;9.392;2023-02-28T00:52:00;8.03;;;3.70;;
813;SDS011;389;48.710;9.392;2023-02-28T00:54:26;5.13;;;3.20;;
813;SDS011;389;48.710;9.392;2023-02-28T00:56:52;6.10;;;3.13;;
813;SDS011;389;48.710;9.392;2023-02-28T00:59:18;4.60;;;3.30;;
813;SDS011;389;48.710;9.392;2023-02-28T01:01:45;4.13;;;2.90;;
813;SDS011;389;48.710;9.392;2023-02-28T01:04:11;4.00;;;2.53;;
813;SDS011;389;48.710;9.392;2023-02-28T01:06:37;3.83;;;2.90;;
813;SDS011;389;48.710;9.392;2023-02-28T01:09:04;5.10;;;3.37;;
813;SDS011;389;48.710;9.392;2023-02-28T01:11:30;3.63;;;2.60;;
813;SDS011;389;48.710;9.392;2023-02-28T01:13:57;3.97;;;3.10;;
813;SDS011;389;48.710;9.392;2023-02-28T01:16:22;4.17;;;2.70;;
813;SDS011;389;48.710;9.392;2023-02-28T01:18:48;4.00;;;3.10;;
813;SDS011;389;48.710;9.392;2023-02-28T01:21:15;4.60;;;3.60;;
813;SDS011;389;48.710;9.392;2023-02-28T01:23:42;3.40;;;2.83;;
813;SDS011;389;48.710;9.392;2023-02-28T01:26:10;6.50;;;2.37;;
813;SDS011;389;48.710;9.392;2023-02-28T01:28:37;4.80;;;3.70;;
813;SDS011;389;48.710;9.392;2023-02-28T01:31:03;6.00;;;3.97;;
813;SDS011;389;48.710;9.392;2023-02-28T01:33:29;6.30;;;3.60;;
813;SDS011;389;48.710;9.392;2023-02-28T01:35:58;3.83;;;3.47;;
813;SDS011;389;48.710;9.392;2023-02-28T01:38:25;5.40;;;3.33;;
813;SDS011;389;48.710;9.392;2023-02-28T01:40:51;6.17;;;3.10;;
813;SDS011;389;48.710;9.392;2023-02-28T01:43:19;7.77;;;3.90;;
813;SDS011;389;48.710;9.392;2023-02-28T01:45:48;4.70;;;3.70;;
813;SDS011;389;48.710;9.392;2023-02-28T01:48:14;5.27;;;3.80;;
813;SDS011;389;48.710;9.392;2023-02-28T01:50:41;5.07;;;2.73;;
813;SDS011;389;48.710;9.392;2023-02-28T01:53:10;5.30;;;2.97;;
813;SDS011;389;48.710;9.392;2023-02-28T01:55:40;4.03;;;3.63;;
813;SDS011;389;48.710;9.392;2023-02-28T01:58:10;4.87;;;3.60;;
813;SDS011;389;48.710;9.392;2023-02-28T02:00:36;6.47;;;3.17;;
813;SDS011;389;48.710;9.392;2023-02-28T02:03:08;5.47;;;3.00;;
813;SDS011;389;48.710;9.392;2023-02-28T02:05:37;5.23;;;3.43;;
813;SDS011;389;48.710;9.392;2023-02-28T02:08:06;4.57;;;3.47;;
813;SDS011;389;48.710;9.392;2023-02-28T02:10:35;6.90;;;3.70;;
813;SDS011;389;48.710;9.392;2023-02-28T02:25:03;6.47;;;3.60;;
813;SDS011;389;48.710;9.392;2023-02-28T02:27:48;6.27;;;3.40;;
813;SDS011;389;48.710;9.392;2023-02-28T02:30:48;3.30;;;2.20;;
813;SDS011;389;48.710;9.392;2023-02-28T02:33:29;4.33;;;3.17;;
813;SDS011;389;48.710;9.392;2023-02-28T02:36:18;7.30;;;3.40;;
813;SDS011;389;48.710;9.392;2023-02-28T02:41:34;6.80;;;4.03;;
813;SDS011;389;48.710;9.392;2023-02-28T02:44:06;4.93;;;3.70;;
813;SDS011;389;48.710;9.392;2023-02-28T02:46:45;4.30;;;2.70;;
813;SDS011;389;48.710;9.392;2023-02-28T02:49:15;5.03;;;3.80;;
813;SDS011;389;48.710;9.392;2023-02-28T02:51:45;7.90;;;4.40;;
813;SDS011;389;48.710;9.392;2023-02-28T02:54:28;4.73;;;3.57;;
813;SDS011;389;48.710;9.392;2023-02-28T02:57:00;5.27;;;2.80;;
813;SDS011;389;48.710;9.392;2023-02-28T02:59:30;4.67;;;3.30;;
813;SDS011;389;48.710;9.392;2023-02-28T03:01:58;8.97;;;3.73;;
813;SDS011;389;48.710;9.392;2023-02-28T03:04:29;6.93;;;4.93;;
813;SDS011;389;48.710;9.392;2023-02-28T03:06:58;5.67;;;3.77;;
813;SDS011;389;48.710;9.392;2023-02-28T03:09:24;6.67;;;4.13;;
813;SDS011;389;48.710;9.392;2023-02-28T03:11:51;6.10;;;3.60;;
813;SDS011;389;48.710;9.392;2023-02-28T03:20:42;5.07;;;3.03;;
813;SDS011;389;48.710;9.392;2023-02-28T03:23:27;4.63;;;3.80;;
813;SDS011;389;48.710;9.392;2023-02-28T03:26:18;5.40;;;3.33;;
813;SDS011;389;48.710;9.392;2023-02-28T03:28:53;6.50;;;3.73;;
813;SDS011;389;48.710;9.392;2023-02-28T03:34:01;8.33;;;4.87;;
813;SDS011;389;48.710;9.392;2023-02-28T03:36:53;7.13;;;4.20;;
813;SDS011;389;48.710;9.392;2023-02-28T03:39:27;5.20;;;3.70;;
813;SDS011;389;48.710;9.392;2023-02-28T03:42:00;6.07;;;4.37;;
813;SDS011;389;48.710;9.392;2023-02-28T03:44:32;6.67;;;4.13;;
813;SDS011;389;48.710;9.392;2023-02-28T03:47:38;6.73;;;4.97;;
813;SDS011;389;48.710;9.392;2023-02-28T03:50:17;5.07;;;3.20;;
813;SDS011;389;48.710;9.392;2023-02-28T03:55:52;7.23;;;4.40;;
813;SDS011;389;48.710;9.392;2023-02-28T03:58:33;9.30;;;4.77;;
813;SDS011;389;48.710;9.392;2023-02-28T04:01:07;7.77;;;5.27;;
813;SDS011;389;48.710;9.392;2023-02-28T04:03:40;10.47;;;4.57;;
813;SDS011;389;48.710;9.392;2023-02-28T04:06:07;5.60;;;4.33;;
813;SDS011;389;48.710;9.392;2023-02-28T04:08:38;5.47;;;4.77;;
813;SDS011;389;48.710;9.392;2023-02-28T04:11:05;8.00;;;4.90;;
813;SDS011;389;48.710;9.392;2023-02-28T04:13:39;5.80;;;4.27;;
813;SDS011;389;48.710;9.392;2023-02-28T04:16:08;7.10;;;4.67;;
813;SDS011;389;48.710;9.392;2023-02-28T04:18:37;10.27;;;4.90;;
813;SDS011;389;48.710;9.392;2023-02-28T04:21:03;6.87;;;4.40;;
813;SDS011;389;48.710;9.392;2023-02-28T04:23:30;15.73;;;5.40;;
813;SDS011;389;48.710;9.392;2023-02-28T04:25:55;13.27;;;5.47;;
813;SDS011;389;48.710;9.392;2023-02-28T04:28:21;7.33;;;4.77;;
813;SDS011;389;48.710;9.392;2023-02-28T04:30:46;7.90;;;5.00;;
813;SDS011;389;48.710;9.392;2023-02-28T04:33:12;9.43;;;5.87;;
813;SDS011;389;48.710;9.392;2023-02-28T04:35:38;8.97;;;5.30;;
813;SDS011;389;48.710;9.392;2023-02-28T04:38:03;13.30;;;7.00;;
813;SDS011;389;48.710;9.392;2023-02-28T04:40:29;7.47;;;4.43;;
813;SDS011;389;48.710;9.392;2023-02-28T04:42:54;8.53;;;5.57;;
813;SDS011;389;48.710;9.392;2023-02-28T04:45:20;7.43;;;5.30;;
813;SDS011;389;48.710;9.392;2023-02-28T04:47:45;7.07;;;4.40;;
813;SDS011;389;48.710;9.392;2023-02-28T04:50:11;10.33;;;5.17;;
813;SDS011;389;48.710;9.392;2023-02-28T04:52:36;8.10;;;4.87;;
813;SDS011;389;48.710;9.392;2023-02-28T04:55:02;8.60;;;5.00;;
813;SDS011;389;48.710;9.392;2023-02-28T04:57:28;7.87;;;5.03;;
813;SDS011;389;48.710;9.392;2023-02-28T04:59:54;7.67;;;5.70;;
813;SDS011;389;48.710;9.392;2023-02-28T05:02:20;9.20;;;5.60;;
813;SDS011;389;48.710;9.392;2023-02-28T05:04:46;8.17;;;5.33;;
813;SDS011;389;48.710;9.392;2023-02-28T05:07:11;8.30;;;4.47;;
813;SDS011;389;48.710;9.392;2023-02-28T05:09:37;7.50;;;4.73;;
813;SDS011;389;48.710;9.392;2023-02-28T05:12:02;7.27;;;5.03;;
813;SDS011;389;48.710;9.392;2023-02-28T05:14:28;9.27;;;6.17;;
813;SDS011;389;48.710;9.392;2023-02-28T05:16:53;9.40;;;5.30;;
813;SDS011;389;48.710;9.392;2023-02-28T05:19:19;8.00;;;5.03;;
813;SDS011;389;48.710;9.392;2023-02-28T05:21:50;8.30;;;5.00;;
813;SDS011;389;48.710;9.392;2023-02-28T05:24:17;8.60;;;5.60;;
813;SDS011;389;48.710;9.392;2023-02-28T05:26:47;9.50;;;7.03;;
813;SDS011;389;48.710;9.392;2023-02-28T05:29:14;10.37;;;6.20;;
813;SDS011;389;48.710;9.392;2023-02-28T05:31:40;7.73;;;5.20;;
813;SDS011;389;48.710;9.392;2023-02-28T05:34:05;7.40;;;5.30;;
813;SDS011;389;48.710;9.392;2023-02-28T05:36:31;12.00;;;5.60;;
813;SDS011;389;48.710;9.392;2023-02-28T05:38:57;7.73;;;4.87;;
813;SDS011;389;48.710;9.392;2023-02-28T05:41:23;7.30;;;5.30;;
813;SDS011;389;48.710;9.392;2023-02-28T05:43:49;12.17;;;7.30;;
813;SDS011;389;48.710;9.392;2023-02-28T05:46:15;9.80;;;6.40;;
813;SDS011;389;48.710;9.392;2023-02-28T05:48:41;6.97;;;5.57;;
813;SDS011;389;48.710;9.392;2023-02-28T05:51:08;8.87;;;5.70;;
813;SDS011;389;48.710;9.392;2023-02-28T05:53:34;9.90;;;6.17;;
813;SDS011;389;48.710;9.392;2023-02-28T05:56:00;9.30;;;5.73;;
813;SDS011;389;48.710;9.392;2023-02-28T05:58:26;7.50;;;5.20;;
813;SDS011;389;48.710;9.392;2023-02-28T06:00:55;9.80;;;5.40;;
813;SDS011;389;48.710;9.392;2023-02-28T06:03:24;9.53;;;5.90;;
813;SDS011;389;48.710;9.392;2023-02-28T06:05:49;11.33;;;6.60;;
813;SDS011;389;48.710;9.392;2023-02-28T06:08:15;10.60;;;6.60;;
813;SDS011;389;48.710;9.392;2023-02-28T06:10:41;11.60;;;7.03;;
813;SDS011;389;48.710;9.392;2023-02-28T06:13:06;12.13;;;6.53;;
813;SDS011;389;48.710;9.392;2023-02-28T06:15:32;12.47;;;7.20;;
813;SDS011;389;48.710;9.392;2023-02-28T06:17:58;15.40;;;7.10;;
813;SDS011;389;48.710;9.392;2023-02-28T06:20:24;9.33;;;6.33;;
813;SDS011;389;48.710;9.392;2023-02-28T06:22:54;10.70;;;6.37;;
813;SDS011;389;48.710;9.392;2023-02-28T06:25:21;11.43;;;7.10;;
813;SDS011;389;48.710;9.392;2023-02-28T06:27:46;11.70;;;6.53;;
813;SDS011;389;48.710;9.392;2023-02-28T06:30:13;18.33;;;9.83;;
813;SDS011;389;48.710;9.392;2023-02-28T06:32:39;14.77;;;9.83;;
813;SDS011;389;48.710;9.392;2023-02-28T06:35:04;11.37;;;7.30;;
813;SDS011;389;48.710;9.392;2023-02-28T06:37:31;12.17;;;6.20;;
813;SDS011;389;48.710;9.392;2023-02-28T06:39:57;13.00;;;7.80;;
813;SDS011;389;48.710;9.392;2023-02-28T06:42:23;13.80;;;8.43;;
813;SDS011;389;48.710;9.392;2023-02-28T06:44:57;10.50;;;7.07;;
813;SDS011;389;48.710;9.392;2023-02-28T06:47:22;12.07;;;7.47;;
813;SDS011;389;48.710;9.392;2023-02-28T06:49:48;12.33;;;7.20;;
813;SDS011;389;48.710;9.392;2023-02-28T06:52:14;12.47;;;6.73;;
813;SDS011;389;48.710;9.392;2023-02-28T06:54:40;12.70;;;7.03;;
813;SDS011;389;48.710;9.392;2023-02-28T06:57:06;13.57;;;6.43;;
813;SDS011;389;48.710;9.392;2023-02-28T06:59:31;11.20;;;6.70;;
813;SDS011;389;48.710;9.392;2023-02-28T07:01:57;16.33;;;6.60;;
813;SDS011;389;48.710;9.392;2023-02-28T07:04:23;12.70;;;7.10;;
813;SDS011;389;48.710;9.392;2023-02-28T07:06:48;10.67;;;6.87;;
813;SDS011;389;48.710;9.392;2023-02-28T07:09:14;12.93;;;6.70;;
813;SDS011;389;48.710;9.392;2023-02-28T07:11:40;17.43;;;7.47;;
813;SDS011;389;48.710;9.392;2023-02-28T07:14:08;12.83;;;6.37;;
813;SDS011;389;48.710;9.392;2023-02-28T07:16:34;11.37;;;7.20;;
813;SDS011;389;48.710;9.392;2023-02-28T07:19:00;12.20;;;8.00;;
813;SDS011;389;48.710;9.392;2023-02-28T07:21:25;16.07;;;8.53;;
813;SDS011;389;48.710;9.392;2023-02-28T07:23:51;11.23;;;7.90;;
813;SDS011;389;48.710;9.392;2023-02-28T07:26:17;11.63;;;7.00;;
813;SDS011;389;48.710;9.392;2023-02-28T07:28:45;10.83;;;6.93;;
813;SDS011;389;48.710;9.392;2023-02-28T07:31:12;12.57;;;7.57;;
813;SDS011;389;48.710;9.392;2023-02-28T07:33:42;12.87;;;6.40;;
813;SDS011;389;48.710;9.392;2023-02-28T07:36:09;10.17;;;6.80;;
813;SDS011;389;48.710;9.392;2023-02-28T07:38:44;12.87;;;8.40;;
813;SDS011;389;48.710;9.392;2023-02-28T07:41:12;12.00;;;6.97;;
813;SDS011;389;48.710;9.392;2023-02-28T07:43:38;15.30;;;8.60;;
813;SDS011;389;48.710;9.392;2023-02-28T07:46:05;13.70;;;7.40;;
813;SDS011;389;48.710;9.392;2023-02-28T07:48:32;10.67;;;6.67;;
813;SDS011;389;48.710;9.392;2023-02-28T07:50:58;16.53;;;8.17;;
813;SDS011;389;48.710;9.392;2023-02-28T07:53:25;11.90;;;6.73;;
813;SDS011;389;48.710;9.392;2023-02-28T07:55:54;11.67;;;7.03;;
813;SDS011;389;48.710;9.392;2023-02-28T07:58:24;12.40;;;7.13;;
813;SDS011;389;48.710;9.392;2023-02-28T08:00:50;14.00;;;7.17;;
813;SDS011;389;48.710;9.392;2023-02-28T08:03:17;13.70;;;9.33;;
813;SDS011;389;48.710;9.392;2023-02-28T08:05:43;14.83;;;7.50;;
813;SDS011;389;48.710;9.392;2023-02-28T08:08:09;15.67;;;10.10;;
813;SDS011;389;48.710;9.392;2023-02-28T08:10:35;12.33;;;7.10;;
813;SDS011;389;48.710;9.392;2023-02-28T08:13:01;10.97;;;7.23;;
813;SDS011;389;48.710;9.392;2023-02-28T08:15:26;11.73;;;7.27;;
813;SDS011;389;48.710;9.392;2023-02-28T08:17:52;10.10;;;6.23;;
813;SDS011;389;48.710;9.392;2023-02-28T08:20:17;11.77;;;6.50;;
813;SDS011;389;48.710;9.392;2023-02-28T08:22:44;12.13;;;7.20;;
813;SDS011;389;48.710;9.392;2023-02-28T08:25:09;10.30;;;7.80;;
813;SDS011;389;48.710;9.392;2023-02-28T08:27:36;10.13;;;6.80;;
813;SDS011;389;48.710;9.392;2023-02-28T08:30:02;11.43;;;7.27;;
813;SDS011;389;48.710;9.392;2023-02-28T08:32:28;10.10;;;6.27;;
813;SDS011;389;48.710;9.392;2023-02-28T08:34:53;16.47;;;8.70;;
813;SDS011;389;48.710;9.392;2023-02-28T08:37:19;9.67;;;6.97;;
813;SDS011;389;48.710;9.392;2023-02-28T08:39:45;11.23;;;6.90;;
813;SDS011;389;48.710;9.392;2023-02-28T08:42:10;13.03;;;8.13;;
813;SDS011;389;48.710;9.392;2023-02-28T08:44:36;11.10;;;7.00;;
813;SDS011;389;48.710;9.392;2023-02-28T08:47:02;10.97;;;7.50;;
813;SDS011;389;48.710;9.392;2023-02-28T08:49:27;15.13;;;7.70;;
813;SDS011;389;48.710;9.392;2023-02-28T08:51:53;15.60;;;9.07;;
813;SDS011;389;48.710;9.392;2023-02-28T08:54:20;13.00;;;7.20;;
813;SDS011;389;48.710;9.392;2023-02-28T08:56:46;11.97;;;7.30;;
813;SDS011;389;48.710;9.392;2023-02-28T08:59:12;10.20;;;6.73;;
813;SDS011;389;48.710;9.392;2023-02-28T09:01:38;12.50;;;8.23;;
813;SDS011;389;48.710;9.392;2023-02-28T09:04:03;10.80;;;6.90;;
813;SDS011;389;48.710;9.392;2023-02-28T09:06:31;12.03;;;7.43;;
813;SDS011;389;48.710;9.392;2023-02-28T09:08:57;13.43;;;7.50;;
813;SDS011;389;48.710;9.392;2023-02-28T09:11:24;13.43;;;8.43;;
813;SDS011;389;48.710;9.392;2023-02-28T09:13:50;15.50;;;8.90;;
813;SDS011;389;48.710;9.392;2023-02-28T09:16:15;14.03;;;8.67;;
813;SDS011;389;48.710;9.392;2023-02-28T09:18:41;13.30;;;8.27;;
813;SDS011;389;48.710;9.392;2023-02-28T09:21:08;19.30;;;9.53;;
813;SDS011;389;48.710;9.392;2023-02-28T09:23:38;12.90;;;8.10;;
813;SDS011;389;48.710;9.392;2023-02-28T09:26:05;16.83;;;8.37;;
813;SDS011;389;48.710;9.392;2023-02-28T09:28:31;11.30;;;7.87;;
813;SDS011;389;48.710;9.392;2023-02-28T09:30:56;12.30;;;8.73;;
813;SDS011;389;48.710;9.392;2023-02-28T09:33:23;14.63;;;8.00;;
813;SDS011;389;48.710;9.392;2023-02-28T09:35:49;12.73;;;8.93;;
813;SDS011;389;48.710;9.392;2023-02-28T09:38:16;10.60;;;6.40;;
813;SDS011;389;48.710;9.392;2023-02-28T09:40:48;15.10;;;8.60;;
813;SDS011;389;48.710;9.392;2023-02-28T09:43:17;15.13;;;6.47;;
813;SDS011;389;48.710;9.392;2023-02-28T09:46:28;11.57;;;7.60;;
813;SDS011;389;48.710;9.392;2023-02-28T09:48:48;11.33;;;7.70;;
813;SDS011;389;48.710;9.392;2023-02-28T09:51:35;12.13;;;7.30;;
813;SDS011;389;48.710;9.392;2023-02-28T09:54:16;12.20;;;6.70;;
813;SDS011;389;48.710;9.392;2023-02-28T09:56:55;12.60;;;8.47;;
813;SDS011;389;48.710;9.392;2023-02-28T09:59:36;13.23;;;7.97;;
813;SDS011;389;48.710;9.392;2023-02-28T10:02:17;15.83;;;8.43;;
813;SDS011;389;48.710;9.392;2023-02-28T10:05:12;13.57;;;8.20;;
813;SDS011;389;48.710;9.392;2023-02-28T10:13:05;13.47;;;8.43;;
813;SDS011;389;48.710;9.392;2023-02-28T10:15:38;13.40;;;7.47;;
813;SDS011;389;48.710;9.392;2023-02-28T10:18:05;13.77;;;7.40;;
813;SDS011;389;48.710;9.392;2023-02-28T10:20:39;15.17;;;8.70;;
813;SDS011;389;48.710;9.392;2023-02-28T10:26:13;14.37;;;8.30;;
813;SDS011;389;48.710;9.392;2023-02-28T10:28:41;12.07;;;7.80;;
813;SDS011;389;48.710;9.392;2023-02-28T10:31:08;11.90;;;7.20;;
813;SDS011;389;48.710;9.392;2023-02-28T10:33:43;10.83;;;7.00;;
813;SDS011;389;48.710;9.392;2023-02-28T10:36:10;12.63;;;7.47;;
813;SDS011;389;48.710;9.392;2023-02-28T10:38:43;10.57;;;7.90;;
813;SDS011;389;48.710;9.392;2023-02-28T10:43:36;13.90;;;8.47;;
813;SDS011;389;48.710;9.392;2023-02-28T10:48:39;17.00;;;8.77;;
813;SDS011;389;48.710;9.392;2023-02-28T10:51:10;11.90;;;7.90;;
813;SDS011;389;48.710;9.392;2023-02-28T10:53:39;11.27;;;7.30;;
813;SDS011;389;48.710;9.392;2023-02-28T10:58:48;14.80;;;9.97;;
813;SDS011;389;48.710;9.392;2023-02-28T11:04:01;19.40;;;8.73;;
813;SDS011;389;48.710;9.392;2023-02-28T11:06:33;11.30;;;7.60;;
813;SDS011;389;48.710;9.392;2023-02-28T11:09:03;12.03;;;8.50;;
813;SDS011;389;48.710;9.392;2023-02-28T11:11:44;15.23;;;7.80;;
813;SDS011;389;48.710;9.392;2023-02-28T11:14:31;13.50;;;8.33;;
813;SDS011;389;48.710;9.392;2023-02-28T11:17:03;15.80;;;9.10;;
813;SDS011;389;48.710;9.392;2023-02-28T11:19:45;17.57;;;8.70;;
813;SDS011;389;48.710;9.392;2023-02-28T11:22:16;12.33;;;8.60;;
813;SDS011;389;48.710;9.392;2023-02-28T11:24:55;10.47;;;7.13;;
813;SDS011;389;48.710;9.392;2023-02-28T11:27:47;15.30;;;8.70;;
813;SDS011;389;48.710;9.392;2023-02-28T11:30:30;12.60;;;8.63;;
813;SDS011;389;48.710;9.392;2023-02-28T11:33:00;14.50;;;7.63;;
813;SDS011;389;48.710;9.392;2023-02-28T11:35:46;13.13;;;8.00;;
813;SDS011;389;48.710;9.392;2023-02-28T11:38:14;11.80;;;7.60;;
813;SDS011;389;48.710;9.392;2023-02-28T11:40:43;12.60;;;7.80;;
813;SDS011;389;48.710;9.392;2023-02-28T11:49:02;12.47;;;7.40;;
813;SDS011;389;48.710;9.392;2023-02-28T11:51:49;14.80;;;7.97;;
813;SDS011;389;48.710;9.392;2023-02-28T11:57:24;10.63;;;7.70;;
813;SDS011;389;48.710;9.392;2023-02-28T12:02:30;13.57;;;9.07;;
813;SDS011;389;48.710;9.392;2023-02-28T12:05:23;12.37;;;9.10;;
813;SDS011;389;48.710;9.392;2023-02-28T12:08:02;15.43;;;9.33;;
813;SDS011;389;48.710;9.392;2023-02-28T12:11:03;17.37;;;9.27;;
813;SDS011;389;48.710;9.392;2023-02-28T12:16:23;12.87;;;7.70;;
813;SDS011;389;48.710;9.392;2023-02-28T12:27:11;14.93;;;9.80;;
813;SDS011;389;48.710;9.392;2023-02-28T12:29:43;15.97;;;9.13;;
813;SDS011;389;48.710;9.392;2023-02-28T12:32:18;14.07;;;9.40;;
813;SDS011;389;48.710;9.392;2023-02-28T12:35:12;14.20;;;8.43;;
813;SDS011;389;48.710;9.392;2023-02-28T12:37:54;13.33;;;8.23;;
813;SDS011;389;48.710;9.392;2023-02-28T12:40:28;12.30;;;7.90;;
813;SDS011;389;48.710;9.392;2023-02-28T12:43:07;15.10;;;8.63;;
813;SDS011;389;48.710;9.392;2023-02-28T12:48:21;13.50;;;8.70;;
813;SDS011;389;48.710;9.392;2023-02-28T12:50:52;12.50;;;8.13;;
813;SDS011;389;48.710;9.392;2023-02-28T12:56:15;15.77;;;9.70;;
813;SDS011;389;48.710;9.392;2023-02-28T12:58:48;15.53;;;9.40;;
813;SDS011;389;48.710;9.392;2023-02-28T13:01:39;12.47;;;8.87;;
813;SDS011;389;48.710;9.392;2023-02-28T13:10:05;14.03;;;10.00;;
813;SDS011;389;48.710;9.392;2023-02-28T13:12:32;13.10;;;8.60;;
813;SDS011;389;48.710;9.392;2023-02-28T13:15:12;19.97;;;8.90;;
813;SDS011;389;48.710;9.392;2023-02-28T13:17:48;13.20;;;8.47;;
813;SDS011;389;48.710;9.392;2023-02-28T13:20:15;12.43;;;9.10;;
813;SDS011;389;48.710;9.392;2023-02-28T13:22:49;11.67;;;8.20;;
813;SDS011;389;48.710;9.392;2023-02-28T13:27:58;16.17;;;9.63;;
813;SDS011;389;48.710;9.392;2023-02-28T13:38:48;15.00;;;8.77;;
813;SDS011;389;48.710;9.392;2023-02-28T13:46:35;16.20;;;8.20;;
813;SDS011;389;48.710;9.392;2023-02-28T13:49:30;12.10;;;8.13;;
813;SDS011;389;48.710;9.392;2023-02-28T13:59:38;16.67;;;8.70;;
813;SDS011;389;48.710;9.392;2023-02-28T14:05:15;13.63;;;8.50;;
813;SDS011;389;48.710;9.392;2023-02-28T14:07:45;14.23;;;8.13;;
813;SDS011;389;48.710;9.392;2023-02-28T14:10:22;10.53;;;6.57;;
813;SDS011;389;48.710;9.392;2023-02-28T14:17:55;12.63;;;8.70;;
813;SDS011;389;48.710;9.392;2023-02-28T14:20:25;12.70;;;8.53;;
813;SDS011;389;48.710;9.392;2023-02-28T14:25:35;12.07;;;8.10;;
813;SDS011;389;48.710;9.392;2023-02-28T14:28:19;15.23;;;8.73;;
813;SDS011;389;48.710;9.392;2023-02-28T14:30:57;13.47;;;8.40;;
813;SDS011;389;48.710;9.392;2023-02-28T14:33:43;14.80;;;8.50;;
813;SDS011;389;48.710;9.392;2023-02-28T14:36:35;14.00;;;8.17;;
813;SDS011;389;48.710;9.392;2023-02-28T14:39:21;12.40;;;8.70;;
813;SDS011;389;48.710;9.392;2023-02-28T14:41:49;13.23;;;8.07;;
813;SDS011;389;48.710;9.392;2023-02-28T14:44:16;17.90;;;8.90;;
813;SDS011;389;48.710;9.392;2023-02-28T14:46:50;12.63;;;7.93;;
813;SDS011;389;48.710;9.392;2023-02-28T14:49:20;13.20;;;9.70;;
813;SDS011;389;48.710;9.392;2023-02-28T14:51:50;14.47;;;8.67;;
813;SDS011;389;48.710;9.392;2023-02-28T14:54:26;12.53;;;7.33;;
813;SDS011;389;48.710;9.392;2023-02-28T14:56:52;13.43;;;8.47;;
813;SDS011;389;48.710;9.392;2023-02-28T14:59:23;12.80;;;8.10;;
813;SDS011;389;48.710;9.392;2023-02-28T15:02:14;12.00;;;8.30;;
813;SDS011;389;48.710;9.392;2023-02-28T15:04:39;13.83;;;8.67;;
813;SDS011;389;48.710;9.392;2023-02-28T15:07:07;10.10;;;7.97;;
813;SDS011;389;48.710;9.392;2023-02-28T15:09:34;13.53;;;8.90;;
813;SDS011;389;48.710;9.392;2023-02-28T15:11:59;15.70;;;8.90;;
813;SDS011;389;48.710;9.392;2023-02-28T15:14:25;13.90;;;9.00;;
813;SDS011;389;48.710;9.392;2023-02-28T15:16:55;14.20;;;8.23;;
813;SDS011;389;48.710;9.392;2023-02-28T15:19:28;11.10;;;8.30;;
813;SDS011;389;48.710;9.392;2023-02-28T15:22:00;13.83;;;9.17;;
813;SDS011;389;48.710;9.392;2023-02-28T15:24:40;17.87;;;10.40;;
813;SDS011;389;48.710;9.392;2023-02-28T15:27:13;15.30;;;9.27;;
813;SDS011;389;48.710;9.392;2023-02-28T15:29:47;16.10;;;8.97;;
813;SDS011;389;48.710;9.392;2023-02-28T15:32:37;17.40;;;8.70;;
813;SDS011;389;48.710;9.392;2023-02-28T15:40:49;12.87;;;7.50;;
813;SDS011;389;48.710;9.392;2023-02-28T15:43:37;14.43;;;8.30;;
813;SDS011;389;48.710;9.392;2023-02-28T15:46:11;12.40;;;7.50;;
813;SDS011;389;48.710;9.392;2023-02-28T15:48:49;13.63;;;7.70;;
813;SDS011;389;48.710;9.392;2023-02-28T15:51:17;14.67;;;7.90;;
813;SDS011;389;48.710;9.392;2023-02-28T15:53:48;13.33;;;8.10;;
813;SDS011;389;48.710;9.392;2023-02-28T15:56:26;13.73;;;8.83;;
813;SDS011;389;48.710;9.392;2023-02-28T15:58:58;13.27;;;8.57;;
813;SDS011;389;48.710;9.392;2023-02-28T16:01:36;14.37;;;7.90;;
813;SDS011;389;48.710;9.392;2023-02-28T16:04:04;12.03;;;7.90;;
813;SDS011;389;48.710;9.392;2023-02-28T16:06:41;15.90;;;9.00;;
813;SDS011;389;48.710;9.392;2023-02-28T16:09:12;12.37;;;8.20;;
813;SDS011;389;48.710;9.392;2023-02-28T16:11:41;12.63;;;7.90;;
813;SDS011;389;48.710;9.392;2023-02-28T16:14:16;11.67;;;8.10;;
813;SDS011;389;48.710;9.392;2023-02-28T16:16:44;14.60;;;9.07;;
813;SDS011;389;48.710;9.392;2023-02-28T16:19:12;15.60;;;8.47;;
813;SDS011;389;48.710;9.392;2023-02-28T16:21:38;15.90;;;9.87;;
813;SDS011;389;48.710;9.392;2023-02-28T16:24:04;15.70;;;9.23;;
813;SDS011;389;48.710;9.392;2023-02-28T16:26:29;15.17;;;9.50;;
813;SDS011;389;48.710;9.392;2023-02-28T16:28:55;16.97;;;10.53;;
813;SDS011;389;48.710;9.392;2023-02-28T16:31:21;16.50;;;9.90;;
813;SDS011;389;48.710;9.392;2023-02-28T16:33:46;17.87;;;10.50;;
813;SDS011;389;48.710;9.392;2023-02-28T16:36:14;15.10;;;9.33;;
813;SDS011;389;48.710;9.392;2023-02-28T16:38:41;20.90;;;10.70;;
813;SDS011;389;48.710;9.392;2023-02-28T16:41:07;19.80;;;11.23;;
813;SDS011;389;48.710;9.392;2023-02-28T16:43:41;15.70;;;9.57;;
813;SDS011;389;48.710;9.392;2023-02-28T16:46:09;13.77;;;8.77;;
813;SDS011;389;48.710;9.392;2023-02-28T16:48:36;19.77;;;11.10;;
813;SDS011;389;48.710;9.392;2023-02-28T16:51:02;18.23;;;9.80;;
813;SDS011;389;48.710;9.392;2023-02-28T16:53:29;24.13;;;13.80;;
813;SDS011;389;48.710;9.392;2023-02-28T16:55:55;23.27;;;13.13;;
813;SDS011;389;48.710;9.392;2023-02-28T16:58:20;17.97;;;11.33;;
813;SDS011;389;48.710;9.392;2023-02-28T17:00:48;15.63;;;9.20;;
813;SDS011;389;48.710;9.392;2023-02-28T17:03:24;19.23;;;12.57;;
813;SDS011;389;48.710;9.392;2023-02-28T17:05:51;14.93;;;9.73;;
813;SDS011;389;48.710;9.392;2023-02-28T17:08:17;15.40;;;10.43;;
813;SDS011;389;48.710;9.392;2023-02-28T17:10:43;14.43;;;9.77;;
813;SDS011;389;48.710;9.392;2023-02-28T17:13:08;15.47;;;9.87;;
813;SDS011;389;48.710;9.392;2023-02-28T17:15:34;22.43;;;12.20;;
813;SDS011;389;48.710;9.392;2023-02-28T17:18:01;16.73;;;9.50;;
813;SDS011;389;48.710;9.392;2023-02-28T17:20:27;18.57;;;11.13;;
813;SDS011;389;48.710;9.392;2023-02-28T17:22:53;18.97;;;10.47;;
813;SDS011;389;48.710;9.392;2023-02-28T17:25:19;18.97;;;11.07;;
813;SDS011;389;48.710;9.392;2023-02-28T17:27:45;16.57;;;9.90;;
813;SDS011;389;48.710;9.392;2023-02-28T17:30:20;15.20;;;9.87;;
813;SDS011;389;48.710;9.392;2023-02-28T17:32:48;21.47;;;9.70;;
813;SDS011;389;48.710;9.392;2023-02-28T17:35:13;20.23;;;10.83;;
813;SDS011;389;48.710;9.392;2023-02-28T17:37:39;19.03;;;10.30;;
813;SDS011;389;48.710;9.392;2023-02-28T17:40:05;15.80;;;10.10;;
813;SDS011;389;48.710;9.392;2023-02-28T17:42:36;17.60;;;10.30;;
813;SDS011;389;48.710;9.392;2023-02-28T17:45:01;16.70;;;8.40;;
813;SDS011;389;48.710;9.392;2023-02-28T17:47:27;21.37;;;10.00;;
813;SDS011;389;48.710;9.392;2023-02-28T17:49:52;13.80;;;8.67;;
813;SDS011;389;48.710;9.392;2023-02-28T17:52:18;17.37;;;9.80;;